KADW

Joint Base Andrews Airport

Camp Springs, Maryland, USA
TAF KADW 210100Z 2101/2207 36009KT 9999 FEW040 QNH3030INS BECMG 2205/2206 36009KT 9999 SCT150 QNH3035INS TX16/2121Z TN02/2109Z
Issued Valid From Valid To
Apr-21 @ 01:00 UTC
(3 hours ago)
Apr-21 @ 01:00 UTC
(3 hours ago)
Apr-22 @ 07:00 UTC
(-1 days ago)
Apr-21 @ 01:00 to Apr-22 @ 05:00
TAF KADW 210100Z 2101/2207 36009KT 9999 FEW040 QNH3030INS
Wind Visibility Clouds Readings
360° at 9 knots Greater than 6 miles
  • Few at 4,000' AGL
Altimeter 30.3" Hg
Pressure 1026 hPa
Becoming Apr-22 @ 05:00 to Apr-22 @ 07:00
BECMG 2205/2206 36009KT 9999 SCT150 QNH3035INS TX16/2121Z TN02/2109Z
Wind Visibility Clouds Readings
360° at 9 knots Greater than 6 miles
  • Scattered at 15,000' AGL
Altimeter 30.35" Hg
Pressure 1028 hPa
TAF KADW 210100Z 2101/2207 36009KT 9999 FEW040 QNH3030INS BECMG 2205/2206 36009KT 9999 SCT150 QNH3035INS TX16/2121Z TN02/2109Z
Issued Apr-21 @ 01:00 UTC
(3 hours ago)
Valid From Apr-21 @ 01:00 UTC
(3 hours ago)
Valid To Apr-22 @ 07:00 UTC
(-1 days ago)
Apr-21 @ 01:00 - Apr-22 @ 05:00
Wind Visibility
360° at 9 knots Greater than 6 miles
Clouds
  • Few at 4,000' AGL
Becoming Apr-22 @ 05:00 - Apr-22 @ 07:00
Wind Visibility
360° at 9 knots Greater than 6 miles
Clouds
  • Scattered at 15,000' AGL